sensor_id;sensor_type;location;lat;lon;timestamp;temperature;humidity
3566;DHT22;1797;51.844;7.684;2022-10-16T00:00:56;13.20;99.90
3566;DHT22;1797;51.844;7.684;2022-10-16T00:03:22;13.30;99.90
3566;DHT22;1797;51.844;7.684;2022-10-16T00:05:48;13.20;99.90
3566;DHT22;1797;51.844;7.684;2022-10-16T00:08:14;13.20;99.90
3566;DHT22;1797;51.844;7.684;2022-10-16T00:10:39;13.20;99.90
3566;DHT22;1797;51.844;7.684;2022-10-16T00:13:06;13.20;99.90
3566;DHT22;1797;51.844;7.684;2022-10-16T00:15:38;13.20;99.90
3566;DHT22;1797;51.844;7.684;2022-10-16T00:18:04;13.20;99.90
3566;DHT22;1797;51.844;7.684;2022-10-16T00:20:33;13.20;99.90
3566;DHT22;1797;51.844;7.684;2022-10-16T00:22:59;13.10;99.90
3566;DHT22;1797;51.844;7.684;2022-10-16T00:25:25;13.10;99.90
3566;DHT22;1797;51.844;7.684;2022-10-16T00:27:51;13.10;99.90
3566;DHT22;1797;51.844;7.684;2022-10-16T00:30:16;13.10;99.90
3566;DHT22;1797;51.844;7.684;2022-10-16T00:32:42;13.10;99.90
3566;DHT22;1797;51.844;7.684;2022-10-16T00:35:07;13.00;99.90
3566;DHT22;1797;51.844;7.684;2022-10-16T00:37:34;13.00;99.90
3566;DHT22;1797;51.844;7.684;2022-10-16T00:40:00;13.00;99.90
3566;DHT22;1797;51.844;7.684;2022-10-16T00:42:26;13.00;99.90
3566;DHT22;1797;51.844;7.684;2022-10-16T00:44:56;12.90;99.90
3566;DHT22;1797;51.844;7.684;2022-10-16T00:47:36;13.00;99.90
3566;DHT22;1797;51.844;7.684;2022-10-16T00:50:44;12.90;99.90
3566;DHT22;1797;51.844;7.684;2022-10-16T00:53:04;12.90;99.90
3566;DHT22;1797;51.844;7.684;2022-10-16T00:55:30;12.90;99.90
3566;DHT22;1797;51.844;7.684;2022-10-16T00:57:57;12.90;99.90
3566;DHT22;1797;51.844;7.684;2022-10-16T01:00:26;12.90;99.90
3566;DHT22;1797;51.844;7.684;2022-10-16T01:02:57;13.00;99.90
3566;DHT22;1797;51.844;7.684;2022-10-16T01:05:30;13.00;99.90
3566;DHT22;1797;51.844;7.684;2022-10-16T01:08:12;13.00;99.90
3566;DHT22;1797;51.844;7.684;2022-10-16T01:10:48;13.00;99.90
3566;DHT22;1797;51.844;7.684;2022-10-16T01:13:22;13.00;99.90
3566;DHT22;1797;51.844;7.684;2022-10-16T01:21:16;13.00;99.90
3566;DHT22;1797;51.844;7.684;2022-10-16T01:29:31;12.90;99.90
3566;DHT22;1797;51.844;7.684;2022-10-16T01:34:33;12.90;99.90
3566;DHT22;1797;51.844;7.684;2022-10-16T01:37:12;12.80;99.90
3566;DHT22;1797;51.844;7.684;2022-10-16T01:39:42;12.80;99.90
3566;DHT22;1797;51.844;7.684;2022-10-16T01:42:19;12.80;99.90
3566;DHT22;1797;51.844;7.684;2022-10-16T01:44:47;12.70;99.90
3566;DHT22;1797;51.844;7.684;2022-10-16T01:47:14;12.70;99.90
3566;DHT22;1797;51.844;7.684;2022-10-16T01:49:41;12.70;99.90
3566;DHT22;1797;51.844;7.684;2022-10-16T01:52:14;12.70;99.90
3566;DHT22;1797;51.844;7.684;2022-10-16T01:54:43;12.60;99.90
3566;DHT22;1797;51.844;7.684;2022-10-16T01:57:12;12.60;99.90
3566;DHT22;1797;51.844;7.684;2022-10-16T01:59:44;12.60;99.90
3566;DHT22;1797;51.844;7.684;2022-10-16T02:02:13;12.60;99.90
3566;DHT22;1797;51.844;7.684;2022-10-16T02:04:46;12.60;99.90
3566;DHT22;1797;51.844;7.684;2022-10-16T02:07:13;12.50;99.90
3566;DHT22;1797;51.844;7.684;2022-10-16T02:09:39;12.50;99.90
3566;DHT22;1797;51.844;7.684;2022-10-16T02:12:14;12.50;99.90
3566;DHT22;1797;51.844;7.684;2022-10-16T02:14:40;12.50;99.90
3566;DHT22;1797;51.844;7.684;2022-10-16T02:17:14;12.50;99.90
3566;DHT22;1797;51.844;7.684;2022-10-16T02:19:41;12.50;99.90
3566;DHT22;1797;51.844;7.684;2022-10-16T02:22:11;12.50;99.90
3566;DHT22;1797;51.844;7.684;2022-10-16T02:24:57;12.50;99.90
3566;DHT22;1797;51.844;7.684;2022-10-16T02:27:33;12.50;99.90
3566;DHT22;1797;51.844;7.684;2022-10-16T02:30:19;12.40;99.90
3566;DHT22;1797;51.844;7.684;2022-10-16T02:32:47;12.40;99.90
3566;DHT22;1797;51.844;7.684;2022-10-16T02:35:16;12.40;99.90
3566;DHT22;1797;51.844;7.684;2022-10-16T02:37:42;12.40;99.90
3566;DHT22;1797;51.844;7.684;2022-10-16T02:40:09;12.40;99.90
3566;DHT22;1797;51.844;7.684;2022-10-16T02:42:38;12.40;99.90
3566;DHT22;1797;51.844;7.684;2022-10-16T02:45:05;12.40;99.90
3566;DHT22;1797;51.844;7.684;2022-10-16T02:47:31;12.40;99.90
3566;DHT22;1797;51.844;7.684;2022-10-16T02:49:57;12.30;99.90
3566;DHT22;1797;51.844;7.684;2022-10-16T02:52:22;12.30;99.90
3566;DHT22;1797;51.844;7.684;2022-10-16T02:54:48;12.30;99.90
3566;DHT22;1797;51.844;7.684;2022-10-16T02:57:14;12.30;99.90
3566;DHT22;1797;51.844;7.684;2022-10-16T02:59:39;12.30;99.90
3566;DHT22;1797;51.844;7.684;2022-10-16T03:02:05;12.20;99.90
3566;DHT22;1797;51.844;7.684;2022-10-16T03:04:31;12.20;99.90
3566;DHT22;1797;51.844;7.684;2022-10-16T03:06:56;12.20;99.90
3566;DHT22;1797;51.844;7.684;2022-10-16T03:09:22;12.20;99.90
3566;DHT22;1797;51.844;7.684;2022-10-16T03:11:47;12.20;99.90
3566;DHT22;1797;51.844;7.684;2022-10-16T03:14:13;12.20;99.90
3566;DHT22;1797;51.844;7.684;2022-10-16T03:16:38;12.30;99.90
3566;DHT22;1797;51.844;7.684;2022-10-16T03:19:04;12.30;99.90
3566;DHT22;1797;51.844;7.684;2022-10-16T03:21:30;12.30;99.90
3566;DHT22;1797;51.844;7.684;2022-10-16T03:23:55;12.30;99.90
3566;DHT22;1797;51.844;7.684;2022-10-16T03:26:21;12.30;99.90
3566;DHT22;1797;51.844;7.684;2022-10-16T03:28:46;12.40;99.90
3566;DHT22;1797;51.844;7.684;2022-10-16T03:31:12;12.40;99.90
3566;DHT22;1797;51.844;7.684;2022-10-16T03:33:38;12.40;99.90
3566;DHT22;1797;51.844;7.684;2022-10-16T03:36:03;12.40;99.90
3566;DHT22;1797;51.844;7.684;2022-10-16T03:38:29;12.40;99.90
3566;DHT22;1797;51.844;7.684;2022-10-16T03:40:55;12.50;99.90
3566;DHT22;1797;51.844;7.684;2022-10-16T03:43:20;12.40;99.90
3566;DHT22;1797;51.844;7.684;2022-10-16T03:45:46;12.50;99.90
3566;DHT22;1797;51.844;7.684;2022-10-16T03:48:11;12.50;99.90
3566;DHT22;1797;51.844;7.684;2022-10-16T03:50:37;12.50;99.90
3566;DHT22;1797;51.844;7.684;2022-10-16T03:53:03;12.50;99.90
3566;DHT22;1797;51.844;7.684;2022-10-16T03:55:29;12.50;99.90
3566;DHT22;1797;51.844;7.684;2022-10-16T03:57:54;12.50;99.90
3566;DHT22;1797;51.844;7.684;2022-10-16T04:00:20;12.50;99.90
3566;DHT22;1797;51.844;7.684;2022-10-16T04:02:45;12.50;99.90
3566;DHT22;1797;51.844;7.684;2022-10-16T04:05:11;12.50;99.90
3566;DHT22;1797;51.844;7.684;2022-10-16T04:07:36;12.50;99.90
3566;DHT22;1797;51.844;7.684;2022-10-16T04:10:03;12.50;99.90
3566;DHT22;1797;51.844;7.684;2022-10-16T04:12:29;12.50;99.90
3566;DHT22;1797;51.844;7.684;2022-10-16T04:14:54;12.50;99.90
3566;DHT22;1797;51.844;7.684;2022-10-16T04:17:20;12.50;99.90
3566;DHT22;1797;51.844;7.684;2022-10-16T04:19:45;12.50;99.90
3566;DHT22;1797;51.844;7.684;2022-10-16T04:22:11;12.50;99.90
3566;DHT22;1797;51.844;7.684;2022-10-16T04:24:37;12.50;99.90
3566;DHT22;1797;51.844;7.684;2022-10-16T04:27:02;12.50;99.90
3566;DHT22;1797;51.844;7.684;2022-10-16T04:29:28;12.50;99.90
3566;DHT22;1797;51.844;7.684;2022-10-16T04:31:54;12.50;99.90
3566;DHT22;1797;51.844;7.684;2022-10-16T04:34:19;12.50;99.90
3566;DHT22;1797;51.844;7.684;2022-10-16T04:36:47;12.50;99.90
3566;DHT22;1797;51.844;7.684;2022-10-16T04:39:13;12.50;99.90
3566;DHT22;1797;51.844;7.684;2022-10-16T04:41:39;12.50;99.90
3566;DHT22;1797;51.844;7.684;2022-10-16T04:44:04;12.50;99.90
3566;DHT22;1797;51.844;7.684;2022-10-16T04:46:30;12.50;99.90
3566;DHT22;1797;51.844;7.684;2022-10-16T04:48:56;12.50;99.90
3566;DHT22;1797;51.844;7.684;2022-10-16T04:51:21;12.50;99.90
3566;DHT22;1797;51.844;7.684;2022-10-16T04:53:47;12.50;99.90
3566;DHT22;1797;51.844;7.684;2022-10-16T04:56:12;12.50;99.90
3566;DHT22;1797;51.844;7.684;2022-10-16T04:58:38;12.50;99.90
3566;DHT22;1797;51.844;7.684;2022-10-16T05:01:04;12.50;99.90
3566;DHT22;1797;51.844;7.684;2022-10-16T05:03:29;12.50;99.90
3566;DHT22;1797;51.844;7.684;2022-10-16T05:05:55;12.50;99.90
3566;DHT22;1797;51.844;7.684;2022-10-16T05:08:21;12.50;99.90
3566;DHT22;1797;51.844;7.684;2022-10-16T05:10:47;12.50;99.90
3566;DHT22;1797;51.844;7.684;2022-10-16T05:13:12;12.50;99.90
3566;DHT22;1797;51.844;7.684;2022-10-16T05:15:38;12.50;99.90
3566;DHT22;1797;51.844;7.684;2022-10-16T05:18:04;12.50;99.90
3566;DHT22;1797;51.844;7.684;2022-10-16T05:20:29;12.50;99.90
3566;DHT22;1797;51.844;7.684;2022-10-16T05:22:55;12.50;99.90
3566;DHT22;1797;51.844;7.684;2022-10-16T05:25:21;12.50;99.90
3566;DHT22;1797;51.844;7.684;2022-10-16T05:27:50;12.50;99.90
3566;DHT22;1797;51.844;7.684;2022-10-16T05:30:16;12.50;99.90
3566;DHT22;1797;51.844;7.684;2022-10-16T05:32:45;12.50;99.90
3566;DHT22;1797;51.844;7.684;2022-10-16T05:35:11;12.50;99.90
3566;DHT22;1797;51.844;7.684;2022-10-16T05:37:36;12.50;99.90
3566;DHT22;1797;51.844;7.684;2022-10-16T05:40:02;12.50;99.90
3566;DHT22;1797;51.844;7.684;2022-10-16T05:42:30;12.50;99.90
3566;DHT22;1797;51.844;7.684;2022-10-16T05:44:55;12.50;99.90
3566;DHT22;1797;51.844;7.684;2022-10-16T05:47:21;12.50;99.90
3566;DHT22;1797;51.844;7.684;2022-10-16T05:49:46;12.50;99.90
3566;DHT22;1797;51.844;7.684;2022-10-16T05:52:12;12.50;99.90
3566;DHT22;1797;51.844;7.684;2022-10-16T05:54:38;12.50;99.90
3566;DHT22;1797;51.844;7.684;2022-10-16T05:57:03;12.50;99.90
3566;DHT22;1797;51.844;7.684;2022-10-16T05:59:31;12.50;99.90
3566;DHT22;1797;51.844;7.684;2022-10-16T06:01:56;12.50;99.90
3566;DHT22;1797;51.844;7.684;2022-10-16T06:04:22;12.60;99.90
3566;DHT22;1797;51.844;7.684;2022-10-16T06:06:48;12.60;99.90
3566;DHT22;1797;51.844;7.684;2022-10-16T06:09:13;12.60;99.90
3566;DHT22;1797;51.844;7.684;2022-10-16T06:11:39;12.60;99.90
3566;DHT22;1797;51.844;7.684;2022-10-16T06:14:04;12.60;99.90
3566;DHT22;1797;51.844;7.684;2022-10-16T06:16:36;12.60;99.90
3566;DHT22;1797;51.844;7.684;2022-10-16T06:19:03;12.60;99.90
3566;DHT22;1797;51.844;7.684;2022-10-16T06:21:31;12.60;99.90
3566;DHT22;1797;51.844;7.684;2022-10-16T06:23:58;12.60;99.90
3566;DHT22;1797;51.844;7.684;2022-10-16T06:26:26;12.60;99.90
3566;DHT22;1797;51.844;7.684;2022-10-16T06:28:54;12.60;99.90
3566;DHT22;1797;51.844;7.684;2022-10-16T06:31:20;12.60;99.90
3566;DHT22;1797;51.844;7.684;2022-10-16T06:33:50;12.60;99.90
3566;DHT22;1797;51.844;7.684;2022-10-16T06:36:17;12.60;99.90
3566;DHT22;1797;51.844;7.684;2022-10-16T06:38:43;12.60;99.90
3566;DHT22;1797;51.844;7.684;2022-10-16T06:41:14;12.60;99.90
3566;DHT22;1797;51.844;7.684;2022-10-16T06:43:40;12.60;99.90
3566;DHT22;1797;51.844;7.684;2022-10-16T06:46:06;12.60;99.90
3566;DHT22;1797;51.844;7.684;2022-10-16T06:48:36;12.60;99.90
3566;DHT22;1797;51.844;7.684;2022-10-16T06:53:30;12.80;99.90
3566;DHT22;1797;51.844;7.684;2022-10-16T06:55:56;12.70;99.90
3566;DHT22;1797;51.844;7.684;2022-10-16T06:58:22;12.80;99.90
3566;DHT22;1797;51.844;7.684;2022-10-16T07:00:48;12.80;99.90
3566;DHT22;1797;51.844;7.684;2022-10-16T07:03:14;12.90;99.90
3566;DHT22;1797;51.844;7.684;2022-10-16T07:05:41;13.00;99.90
3566;DHT22;1797;51.844;7.684;2022-10-16T07:08:07;13.00;99.90
3566;DHT22;1797;51.844;7.684;2022-10-16T07:10:33;13.10;99.90
3566;DHT22;1797;51.844;7.684;2022-10-16T07:12:59;13.10;99.90
3566;DHT22;1797;51.844;7.684;2022-10-16T07:15:25;13.20;99.90
3566;DHT22;1797;51.844;7.684;2022-10-16T07:17:51;13.20;99.90
3566;DHT22;1797;51.844;7.684;2022-10-16T07:20:17;13.20;99.90
3566;DHT22;1797;51.844;7.684;2022-10-16T07:22:43;13.20;99.90
3566;DHT22;1797;51.844;7.684;2022-10-16T07:25:09;13.20;99.90
3566;DHT22;1797;51.844;7.684;2022-10-16T07:27:35;13.20;99.90
3566;DHT22;1797;51.844;7.684;2022-10-16T07:30:01;13.20;99.90
3566;DHT22;1797;51.844;7.684;2022-10-16T07:32:26;13.20;99.90
3566;DHT22;1797;51.844;7.684;2022-10-16T07:34:52;13.20;99.90
3566;DHT22;1797;51.844;7.684;2022-10-16T07:37:18;13.20;99.90
3566;DHT22;1797;51.844;7.684;2022-10-16T07:39:44;13.10;99.90
3566;DHT22;1797;51.844;7.684;2022-10-16T07:42:09;13.20;99.90
3566;DHT22;1797;51.844;7.684;2022-10-16T07:44:35;13.20;99.90
3566;DHT22;1797;51.844;7.684;2022-10-16T07:47:01;13.20;99.90
3566;DHT22;1797;51.844;7.684;2022-10-16T07:49:27;13.30;99.90
3566;DHT22;1797;51.844;7.684;2022-10-16T07:51:52;13.30;99.90
3566;DHT22;1797;51.844;7.684;2022-10-16T07:54:18;13.40;99.90
3566;DHT22;1797;51.844;7.684;2022-10-16T07:56:43;13.40;99.90
3566;DHT22;1797;51.844;7.684;2022-10-16T07:59:09;13.50;99.90
3566;DHT22;1797;51.844;7.684;2022-10-16T08:01:34;13.60;99.90
3566;DHT22;1797;51.844;7.684;2022-10-16T08:04:00;13.60;99.90
3566;DHT22;1797;51.844;7.684;2022-10-16T08:06:26;13.70;99.90
3566;DHT22;1797;51.844;7.684;2022-10-16T08:08:51;13.80;99.90
3566;DHT22;1797;51.844;7.684;2022-10-16T08:11:17;13.90;99.90
3566;DHT22;1797;51.844;7.684;2022-10-16T08:13:43;14.10;99.90
3566;DHT22;1797;51.844;7.684;2022-10-16T08:16:08;14.30;99.90
3566;DHT22;1797;51.844;7.684;2022-10-16T08:18:36;14.30;99.90
3566;DHT22;1797;51.844;7.684;2022-10-16T08:21:02;14.50;99.90
3566;DHT22;1797;51.844;7.684;2022-10-16T08:23:28;14.70;99.90
3566;DHT22;1797;51.844;7.684;2022-10-16T08:25:55;14.90;99.90
3566;DHT22;1797;51.844;7.684;2022-10-16T08:28:21;15.10;99.90
3566;DHT22;1797;51.844;7.684;2022-10-16T08:30:46;15.30;99.90
3566;DHT22;1797;51.844;7.684;2022-10-16T08:33:12;15.40;99.90
3566;DHT22;1797;51.844;7.684;2022-10-16T08:35:37;15.40;99.90
3566;DHT22;1797;51.844;7.684;2022-10-16T08:38:04;15.50;99.90
3566;DHT22;1797;51.844;7.684;2022-10-16T08:40:33;15.70;99.90
3566;DHT22;1797;51.844;7.684;2022-10-16T08:51:07;16.10;99.90
3566;DHT22;1797;51.844;7.684;2022-10-16T08:53:48;16.20;1.00
3566;DHT22;1797;51.844;7.684;2022-10-16T08:56:15;16.30;99.90
3566;DHT22;1797;51.844;7.684;2022-10-16T08:58:40;16.40;1.00
3566;DHT22;1797;51.844;7.684;2022-10-16T09:01:13;16.50;42.40
3566;DHT22;1797;51.844;7.684;2022-10-16T09:09:32;16.90;1.00
3566;DHT22;1797;51.844;7.684;2022-10-16T09:23:08;17.60;99.90
3566;DHT22;1797;51.844;7.684;2022-10-16T09:25:35;17.80;68.30
3566;DHT22;1797;51.844;7.684;2022-10-16T09:28:01;17.90;1.00
3566;DHT22;1797;51.844;7.684;2022-10-16T09:30:28;18.10;99.90
3566;DHT22;1797;51.844;7.684;2022-10-16T09:32:58;18.10;99.90
3566;DHT22;1797;51.844;7.684;2022-10-16T09:35:38;18.20;99.90
3566;DHT22;1797;51.844;7.684;2022-10-16T09:38:05;18.40;1.00
3566;DHT22;1797;51.844;7.684;2022-10-16T09:40:34;18.50;1.00
3566;DHT22;1797;51.844;7.684;2022-10-16T09:43:12;18.60;76.80
3566;DHT22;1797;51.844;7.684;2022-10-16T09:45:43;18.50;11.70
3566;DHT22;1797;51.844;7.684;2022-10-16T09:48:19;18.30;1.00
3566;DHT22;1797;51.844;7.684;2022-10-16T09:50:59;18.30;1.00
3566;DHT22;1797;51.844;7.684;2022-10-16T09:53:37;18.40;1.00
3566;DHT22;1797;51.844;7.684;2022-10-16T09:56:03;18.60;1.00
3566;DHT22;1797;51.844;7.684;2022-10-16T09:58:31;18.70;1.00
3566;DHT22;1797;51.844;7.684;2022-10-16T10:00:58;19.00;99.90
3566;DHT22;1797;51.844;7.684;2022-10-16T10:03:41;18.90;1.00
3566;DHT22;1797;51.844;7.684;2022-10-16T10:06:28;18.70;1.00
3566;DHT22;1797;51.844;7.684;2022-10-16T10:09:23;18.80;1.00
3566;DHT22;1797;51.844;7.684;2022-10-16T10:11:59;19.00;99.90
3566;DHT22;1797;51.844;7.684;2022-10-16T10:14:31;19.20;1.00
3566;DHT22;1797;51.844;7.684;2022-10-16T10:17:14;19.40;99.90
3566;DHT22;1797;51.844;7.684;2022-10-16T10:19:58;19.60;99.90
3566;DHT22;1797;51.844;7.684;2022-10-16T10:22:42;19.70;99.90
3566;DHT22;1797;51.844;7.684;2022-10-16T10:30:48;20.10;99.90
3566;DHT22;1797;51.844;7.684;2022-10-16T10:45:11;19.40;99.90
3566;DHT22;1797;51.844;7.684;2022-10-16T10:55:59;19.00;99.90
3566;DHT22;1797;51.844;7.684;2022-10-16T11:01:18;19.00;99.90
3566;DHT22;1797;51.844;7.684;2022-10-16T11:06:35;18.60;99.90
3566;DHT22;1797;51.844;7.684;2022-10-16T11:09:16;18.50;99.90
3566;DHT22;1797;51.844;7.684;2022-10-16T11:12:17;18.40;99.90
3566;DHT22;1797;51.844;7.684;2022-10-16T11:15:01;18.70;99.90
3566;DHT22;1797;51.844;7.684;2022-10-16T11:17:35;19.10;99.90
3566;DHT22;1797;51.844;7.684;2022-10-16T11:20:16;19.50;99.90
3566;DHT22;1797;51.844;7.684;2022-10-16T11:22:49;19.70;45.30
3566;DHT22;1797;51.844;7.684;2022-10-16T11:25:24;19.60;98.90
3566;DHT22;1797;51.844;7.684;2022-10-16T11:30:25;19.70;91.80
3566;DHT22;1797;51.844;7.684;2022-10-16T11:35:47;20.20;1.00
3566;DHT22;1797;51.844;7.684;2022-10-16T11:38:37;20.40;1.00
3566;DHT22;1797;51.844;7.684;2022-10-16T11:41:31;20.40;1.00
3566;DHT22;1797;51.844;7.684;2022-10-16T11:50:02;20.90;1.00
3566;DHT22;1797;51.844;7.684;2022-10-16T11:53:01;21.00;1.00
3566;DHT22;1797;51.844;7.684;2022-10-16T11:55:40;21.20;1.00
3566;DHT22;1797;51.844;7.684;2022-10-16T11:58:18;21.10;1.00
3566;DHT22;1797;51.844;7.684;2022-10-16T12:06:18;21.10;1.00
3566;DHT22;1797;51.844;7.684;2022-10-16T12:08:49;21.20;1.00
3566;DHT22;1797;51.844;7.684;2022-10-16T12:11:36;21.30;1.00
3566;DHT22;1797;51.844;7.684;2022-10-16T12:16:38;21.80;1.00
3566;DHT22;1797;51.844;7.684;2022-10-16T12:19:14;21.70;1.00
3566;DHT22;1797;51.844;7.684;2022-10-16T12:21:40;21.70;1.00
3566;DHT22;1797;51.844;7.684;2022-10-16T12:24:06;21.60;1.00
3566;DHT22;1797;51.844;7.684;2022-10-16T12:26:46;21.50;1.00
3566;DHT22;1797;51.844;7.684;2022-10-16T12:29:37;21.40;1.00
3566;DHT22;1797;51.844;7.684;2022-10-16T12:32:05;21.30;1.00
3566;DHT22;1797;51.844;7.684;2022-10-16T12:34:44;21.40;1.00
3566;DHT22;1797;51.844;7.684;2022-10-16T12:37:18;21.10;1.00
3566;DHT22;1797;51.844;7.684;2022-10-16T12:39:45;20.90;1.00
3566;DHT22;1797;51.844;7.684;2022-10-16T12:42:33;21.10;1.00
3566;DHT22;1797;51.844;7.684;2022-10-16T12:44:59;21.20;1.00
3566;DHT22;1797;51.844;7.684;2022-10-16T12:49:57;21.30;1.00
3566;DHT22;1797;51.844;7.684;2022-10-16T12:52:31;21.40;1.00
3566;DHT22;1797;51.844;7.684;2022-10-16T12:55:00;21.50;1.00
3566;DHT22;1797;51.844;7.684;2022-10-16T13:00:57;21.50;1.00
3566;DHT22;1797;51.844;7.684;2022-10-16T13:14:32;21.20;1.00
3566;DHT22;1797;51.844;7.684;2022-10-16T13:17:22;21.20;1.00
3566;DHT22;1797;51.844;7.684;2022-10-16T13:28:33;20.50;1.00
3566;DHT22;1797;51.844;7.684;2022-10-16T13:31:01;20.40;1.00
3566;DHT22;1797;51.844;7.684;2022-10-16T13:33:36;20.20;1.00
3566;DHT22;1797;51.844;7.684;2022-10-16T13:36:03;20.10;1.00
3566;DHT22;1797;51.844;7.684;2022-10-16T13:38:36;20.10;1.00
3566;DHT22;1797;51.844;7.684;2022-10-16T13:41:16;20.00;1.00
3566;DHT22;1797;51.844;7.684;2022-10-16T13:43:46;20.00;1.00
3566;DHT22;1797;51.844;7.684;2022-10-16T13:46:16;20.00;1.00
3566;DHT22;1797;51.844;7.684;2022-10-16T13:48:41;19.90;1.00
3566;DHT22;1797;51.844;7.684;2022-10-16T13:51:14;19.90;1.00
3566;DHT22;1797;51.844;7.684;2022-10-16T13:53:40;19.80;1.00
3566;DHT22;1797;51.844;7.684;2022-10-16T13:56:11;19.70;1.00
3566;DHT22;1797;51.844;7.684;2022-10-16T13:58:37;19.70;62.60
3566;DHT22;1797;51.844;7.684;2022-10-16T14:01:25;19.70;94.50
3566;DHT22;1797;51.844;7.684;2022-10-16T14:03:52;19.80;90.00
3566;DHT22;1797;51.844;7.684;2022-10-16T14:06:20;19.70;99.30
3566;DHT22;1797;51.844;7.684;2022-10-16T14:11:32;19.60;16.70
3566;DHT22;1797;51.844;7.684;2022-10-16T14:13:58;19.60;1.00
3566;DHT22;1797;51.844;7.684;2022-10-16T14:16:27;19.50;1.00
3566;DHT22;1797;51.844;7.684;2022-10-16T14:18:59;19.40;67.20
3566;DHT22;1797;51.844;7.684;2022-10-16T14:21:25;19.20;99.90
3566;DHT22;1797;51.844;7.684;2022-10-16T14:23:52;19.10;99.90
3566;DHT22;1797;51.844;7.684;2022-10-16T14:26:21;19.00;99.90
3566;DHT22;1797;51.844;7.684;2022-10-16T14:28:48;19.00;99.90
3566;DHT22;1797;51.844;7.684;2022-10-16T14:31:32;19.00;99.90
3566;DHT22;1797;51.844;7.684;2022-10-16T14:33:59;18.90;99.90
3566;DHT22;1797;51.844;7.684;2022-10-16T14:36:26;18.90;99.90
3566;DHT22;1797;51.844;7.684;2022-10-16T14:39:04;19.00;99.90
3566;DHT22;1797;51.844;7.684;2022-10-16T14:41:32;19.10;99.90
3566;DHT22;1797;51.844;7.684;2022-10-16T14:44:05;19.10;99.90
3566;DHT22;1797;51.844;7.684;2022-10-16T14:46:38;19.10;99.90
3566;DHT22;1797;51.844;7.684;2022-10-16T14:51:40;18.90;99.90
3566;DHT22;1797;51.844;7.684;2022-10-16T14:54:08;18.90;99.90
3566;DHT22;1797;51.844;7.684;2022-10-16T14:56:44;18.80;99.90
3566;DHT22;1797;51.844;7.684;2022-10-16T14:59:16;18.60;99.90
3566;DHT22;1797;51.844;7.684;2022-10-16T15:01:44;18.50;99.90
3566;DHT22;1797;51.844;7.684;2022-10-16T15:04:11;18.50;99.90
3566;DHT22;1797;51.844;7.684;2022-10-16T15:06:37;18.50;99.90
3566;DHT22;1797;51.844;7.684;2022-10-16T15:09:03;18.50;99.90
3566;DHT22;1797;51.844;7.684;2022-10-16T15:11:28;18.50;1.00
3566;DHT22;1797;51.844;7.684;2022-10-16T15:13:54;18.60;1.00
3566;DHT22;1797;51.844;7.684;2022-10-16T15:16:20;18.50;1.00
3566;DHT22;1797;51.844;7.684;2022-10-16T15:18:45;18.50;99.90
3566;DHT22;1797;51.844;7.684;2022-10-16T15:21:22;18.40;1.00
3566;DHT22;1797;51.844;7.684;2022-10-16T15:23:49;18.40;1.00
3566;DHT22;1797;51.844;7.684;2022-10-16T15:26:16;18.40;99.90
3566;DHT22;1797;51.844;7.684;2022-10-16T15:28:41;18.40;1.00
3566;DHT22;1797;51.844;7.684;2022-10-16T15:31:07;18.40;1.00
3566;DHT22;1797;51.844;7.684;2022-10-16T15:33:32;18.40;1.00
3566;DHT22;1797;51.844;7.684;2022-10-16T15:36:00;18.50;1.00
3566;DHT22;1797;51.844;7.684;2022-10-16T15:38:27;18.40;1.00
3566;DHT22;1797;51.844;7.684;2022-10-16T15:40:53;18.40;1.00
3566;DHT22;1797;51.844;7.684;2022-10-16T15:43:19;18.40;1.00
3566;DHT22;1797;51.844;7.684;2022-10-16T15:46:02;18.40;1.00
3566;DHT22;1797;51.844;7.684;2022-10-16T15:48:29;18.30;1.00
3566;DHT22;1797;51.844;7.684;2022-10-16T15:50:54;18.30;1.00
3566;DHT22;1797;51.844;7.684;2022-10-16T15:53:20;18.20;1.00
3566;DHT22;1797;51.844;7.684;2022-10-16T15:55:45;18.20;1.00
3566;DHT22;1797;51.844;7.684;2022-10-16T15:58:11;18.20;99.90
3566;DHT22;1797;51.844;7.684;2022-10-16T16:00:36;18.20;99.90
3566;DHT22;1797;51.844;7.684;2022-10-16T16:03:03;18.10;99.90
3566;DHT22;1797;51.844;7.684;2022-10-16T16:05:29;18.10;99.90
3566;DHT22;1797;51.844;7.684;2022-10-16T16:07:54;18.10;99.90
3566;DHT22;1797;51.844;7.684;2022-10-16T16:10:20;18.00;99.90
3566;DHT22;1797;51.844;7.684;2022-10-16T16:12:49;18.00;99.90
3566;DHT22;1797;51.844;7.684;2022-10-16T16:15:17;18.00;99.90
3566;DHT22;1797;51.844;7.684;2022-10-16T16:17:43;17.90;99.90
3566;DHT22;1797;51.844;7.684;2022-10-16T16:20:10;17.90;99.90
3566;DHT22;1797;51.844;7.684;2022-10-16T16:22:36;17.80;99.90
3566;DHT22;1797;51.844;7.684;2022-10-16T16:25:01;17.80;99.90
3566;DHT22;1797;51.844;7.684;2022-10-16T16:27:27;17.70;99.90
3566;DHT22;1797;51.844;7.684;2022-10-16T16:29:55;17.60;1.00
3566;DHT22;1797;51.844;7.684;2022-10-16T16:32:21;17.50;1.00
3566;DHT22;1797;51.844;7.684;2022-10-16T16:34:46;17.40;1.00
3566;DHT22;1797;51.844;7.684;2022-10-16T16:37:12;17.40;99.90
3566;DHT22;1797;51.844;7.684;2022-10-16T16:39:38;17.30;99.90
3566;DHT22;1797;51.844;7.684;2022-10-16T16:42:03;17.20;99.90
3566;DHT22;1797;51.844;7.684;2022-10-16T16:44:32;17.10;99.90
3566;DHT22;1797;51.844;7.684;2022-10-16T16:46:57;17.00;99.90
3566;DHT22;1797;51.844;7.684;2022-10-16T16:49:23;17.00;99.90
3566;DHT22;1797;51.844;7.684;2022-10-16T16:51:48;17.00;99.90
3566;DHT22;1797;51.844;7.684;2022-10-16T16:54:14;16.90;99.90
3566;DHT22;1797;51.844;7.684;2022-10-16T16:56:40;16.90;1.00
3566;DHT22;1797;51.844;7.684;2022-10-16T16:59:13;16.80;1.00
3566;DHT22;1797;51.844;7.684;2022-10-16T17:01:40;16.70;84.60
3566;DHT22;1797;51.844;7.684;2022-10-16T17:04:05;16.60;99.90
3566;DHT22;1797;51.844;7.684;2022-10-16T17:06:31;16.60;99.90
3566;DHT22;1797;51.844;7.684;2022-10-16T17:08:57;16.50;99.90
3566;DHT22;1797;51.844;7.684;2022-10-16T17:11:27;16.50;1.00
3566;DHT22;1797;51.844;7.684;2022-10-16T17:13:54;16.40;99.90
3566;DHT22;1797;51.844;7.684;2022-10-16T17:16:22;16.40;1.00
3566;DHT22;1797;51.844;7.684;2022-10-16T17:18:48;16.30;1.00
3566;DHT22;1797;51.844;7.684;2022-10-16T17:21:13;16.20;1.00
3566;DHT22;1797;51.844;7.684;2022-10-16T17:23:39;16.20;55.70
3566;DHT22;1797;51.844;7.684;2022-10-16T17:26:13;16.20;99.90
3566;DHT22;1797;51.844;7.684;2022-10-16T17:28:40;16.10;99.90
3566;DHT22;1797;51.844;7.684;2022-10-16T17:31:09;16.20;1.00
3566;DHT22;1797;51.844;7.684;2022-10-16T17:33:35;16.20;56.40
3566;DHT22;1797;51.844;7.684;2022-10-16T17:36:01;16.10;99.90
3566;DHT22;1797;51.844;7.684;2022-10-16T17:38:27;16.10;99.90
3566;DHT22;1797;51.844;7.684;2022-10-16T17:40:53;16.00;1.00
3566;DHT22;1797;51.844;7.684;2022-10-16T17:43:18;16.00;34.40
3566;DHT22;1797;51.844;7.684;2022-10-16T17:45:44;16.00;1.00
3566;DHT22;1797;51.844;7.684;2022-10-16T17:48:09;15.90;1.00
3566;DHT22;1797;51.844;7.684;2022-10-16T17:50:39;15.90;1.00
3566;DHT22;1797;51.844;7.684;2022-10-16T17:53:05;15.80;99.90
3566;DHT22;1797;51.844;7.684;2022-10-16T17:55:31;15.80;99.90
3566;DHT22;1797;51.844;7.684;2022-10-16T17:57:56;15.90;99.90
3566;DHT22;1797;51.844;7.684;2022-10-16T18:00:22;15.90;99.90
3566;DHT22;1797;51.844;7.684;2022-10-16T18:02:48;15.90;1.00
3566;DHT22;1797;51.844;7.684;2022-10-16T18:05:14;15.90;99.90
3566;DHT22;1797;51.844;7.684;2022-10-16T18:07:40;15.90;99.90
3566;DHT22;1797;51.844;7.684;2022-10-16T18:10:06;15.80;99.90
3566;DHT22;1797;51.844;7.684;2022-10-16T18:12:34;15.80;1.00
3566;DHT22;1797;51.844;7.684;2022-10-16T18:14:59;15.80;1.00
3566;DHT22;1797;51.844;7.684;2022-10-16T18:17:25;15.80;1.00